sensor_id;sensor_type;location;lat;lon;timestamp;P1;durP1;ratioP1;P2;durP2;ratioP2
9418;SDS011;4748;50.802;7.132;2023-06-22T03:31:11;3.47;;;3.17;;
9418;SDS011;4748;50.802;7.132;2023-06-22T03:33:36;5.50;;;4.00;;
9418;SDS011;4748;50.802;7.132;2023-06-22T03:36:02;5.20;;;4.80;;
9418;SDS011;4748;50.802;7.132;2023-06-22T03:38:27;4.80;;;4.38;;
9418;SDS011;4748;50.802;7.132;2023-06-22T03:40:53;4.15;;;3.90;;
9418;SDS011;4748;50.802;7.132;2023-06-22T03:43:18;5.53;;;4.28;;
9418;SDS011;4748;50.802;7.132;2023-06-22T03:45:43;3.42;;;3.22;;
9418;SDS011;4748;50.802;7.132;2023-06-22T03:48:10;6.13;;;4.10;;
9418;SDS011;4748;50.802;7.132;2023-06-22T03:50:36;4.97;;;3.70;;
9418;SDS011;4748;50.802;7.132;2023-06-22T03:53:01;4.18;;;3.88;;
9418;SDS011;4748;50.802;7.132;2023-06-22T03:55:27;4.80;;;3.55;;
9418;SDS011;4748;50.802;7.132;2023-06-22T03:57:53;3.97;;;3.65;;
9418;SDS011;4748;50.802;7.132;2023-06-22T04:00:21;5.22;;;3.88;;
9418;SDS011;4748;50.802;7.132;2023-06-22T04:02:47;3.92;;;3.60;;
9418;SDS011;4748;50.802;7.132;2023-06-22T04:05:13;6.45;;;4.43;;
9418;SDS011;4748;50.802;7.132;2023-06-22T04:07:38;5.63;;;4.00;;
9418;SDS011;4748;50.802;7.132;2023-06-22T04:10:04;4.72;;;4.43;;
9418;SDS011;4748;50.802;7.132;2023-06-22T04:12:30;4.47;;;4.15;;
9418;SDS011;4748;50.802;7.132;2023-06-22T04:14:55;4.03;;;3.80;;
9418;SDS011;4748;50.802;7.132;2023-06-22T04:17:20;4.10;;;3.80;;
9418;SDS011;4748;50.802;7.132;2023-06-22T04:19:46;6.22;;;3.40;;
9418;SDS011;4748;50.802;7.132;2023-06-22T04:22:11;4.55;;;4.15;;
9418;SDS011;4748;50.802;7.132;2023-06-22T04:24:37;5.40;;;4.32;;
9418;SDS011;4748;50.802;7.132;2023-06-22T04:27:02;5.47;;;4.60;;
9418;SDS011;4748;50.802;7.132;2023-06-22T04:29:31;3.97;;;3.72;;
9418;SDS011;4748;50.802;7.132;2023-06-22T04:31:57;8.00;;;3.97;;
9418;SDS011;4748;50.802;7.132;2023-06-22T04:34:23;5.40;;;4.63;;
9418;SDS011;4748;50.802;7.132;2023-06-22T04:36:53;4.13;;;3.78;;
9418;SDS011;4748;50.802;7.132;2023-06-22T04:39:18;4.85;;;4.45;;
9418;SDS011;4748;50.802;7.132;2023-06-22T04:41:44;3.67;;;3.47;;
9418;SDS011;4748;50.802;7.132;2023-06-22T04:44:16;5.10;;;4.63;;
9418;SDS011;4748;50.802;7.132;2023-06-22T04:46:52;4.97;;;4.60;;
9418;SDS011;4748;50.802;7.132;2023-06-22T04:49:19;4.18;;;3.88;;
9418;SDS011;4748;50.802;7.132;2023-06-22T04:51:46;4.15;;;3.75;;
9418;SDS011;4748;50.802;7.132;2023-06-22T04:54:11;4.55;;;4.25;;
9418;SDS011;4748;50.802;7.132;2023-06-22T04:56:37;4.72;;;3.97;;
9418;SDS011;4748;50.802;7.132;2023-06-22T04:59:03;4.30;;;3.92;;
9418;SDS011;4748;50.802;7.132;2023-06-22T05:01:28;4.63;;;4.22;;
9418;SDS011;4748;50.802;7.132;2023-06-22T05:03:56;4.47;;;4.07;;
9418;SDS011;4748;50.802;7.132;2023-06-22T05:06:22;3.65;;;3.42;;
9418;SDS011;4748;50.802;7.132;2023-06-22T05:08:53;4.32;;;3.65;;
9418;SDS011;4748;50.802;7.132;2023-06-22T05:11:25;4.63;;;4.22;;
9418;SDS011;4748;50.802;7.132;2023-06-22T05:13:52;3.58;;;3.40;;
9418;SDS011;4748;50.802;7.132;2023-06-22T05:16:18;5.93;;;4.05;;
9418;SDS011;4748;50.802;7.132;2023-06-22T05:18:48;6.30;;;4.00;;
9418;SDS011;4748;50.802;7.132;2023-06-22T05:21:15;3.55;;;3.25;;
9418;SDS011;4748;50.802;7.132;2023-06-22T05:23:40;6.18;;;5.13;;
9418;SDS011;4748;50.802;7.132;2023-06-22T05:26:05;4.13;;;3.83;;
9418;SDS011;4748;50.802;7.132;2023-06-22T05:28:34;4.18;;;3.90;;
9418;SDS011;4748;50.802;7.132;2023-06-22T05:30:59;5.40;;;4.90;;
9418;SDS011;4748;50.802;7.132;2023-06-22T05:33:25;4.78;;;4.38;;
9418;SDS011;4748;50.802;7.132;2023-06-22T05:35:50;5.03;;;4.60;;
9418;SDS011;4748;50.802;7.132;2023-06-22T05:38:15;4.97;;;4.40;;
9418;SDS011;4748;50.802;7.132;2023-06-22T05:40:41;9.38;;;5.03;;
9418;SDS011;4748;50.802;7.132;2023-06-22T05:43:06;14.57;;;4.28;;
9418;SDS011;4748;50.802;7.132;2023-06-22T05:45:31;8.45;;;4.28;;
9418;SDS011;4748;50.802;7.132;2023-06-22T05:47:57;5.13;;;4.35;;
9418;SDS011;4748;50.802;7.132;2023-06-22T05:50:22;4.90;;;3.90;;
9418;SDS011;4748;50.802;7.132;2023-06-22T05:52:47;4.50;;;4.10;;
9418;SDS011;4748;50.802;7.132;2023-06-22T05:55:12;11.25;;;4.55;;
9418;SDS011;4748;50.802;7.132;2023-06-22T05:57:38;5.72;;;3.75;;
9418;SDS011;4748;50.802;7.132;2023-06-22T06:00:03;5.15;;;4.53;;
9418;SDS011;4748;50.802;7.132;2023-06-22T06:02:33;4.25;;;3.85;;
9418;SDS011;4748;50.802;7.132;2023-06-22T06:04:58;4.20;;;3.80;;
9418;SDS011;4748;50.802;7.132;2023-06-22T06:07:24;4.78;;;4.30;;
9418;SDS011;4748;50.802;7.132;2023-06-22T06:09:49;7.93;;;4.38;;
9418;SDS011;4748;50.802;7.132;2023-06-22T06:12:14;4.55;;;4.15;;
9418;SDS011;4748;50.802;7.132;2023-06-22T06:14:40;4.88;;;4.53;;
9418;SDS011;4748;50.802;7.132;2023-06-22T06:17:05;4.72;;;4.32;;
9418;SDS011;4748;50.802;7.132;2023-06-22T06:19:30;5.35;;;4.43;;
9418;SDS011;4748;50.802;7.132;2023-06-22T06:21:56;6.80;;;6.10;;
9418;SDS011;4748;50.802;7.132;2023-06-22T06:24:21;4.38;;;3.60;;
9418;SDS011;4748;50.802;7.132;2023-06-22T06:26:46;4.63;;;3.50;;
9418;SDS011;4748;50.802;7.132;2023-06-22T06:29:12;3.75;;;3.33;;
9418;SDS011;4748;50.802;7.132;2023-06-22T06:31:37;3.90;;;3.60;;
9418;SDS011;4748;50.802;7.132;2023-06-22T06:34:03;4.05;;;3.83;;
9418;SDS011;4748;50.802;7.132;2023-06-22T06:36:28;6.63;;;3.72;;
9418;SDS011;4748;50.802;7.132;2023-06-22T06:38:53;4.43;;;3.97;;
9418;SDS011;4748;50.802;7.132;2023-06-22T06:41:19;6.97;;;3.95;;
9418;SDS011;4748;50.802;7.132;2023-06-22T06:43:44;3.92;;;3.63;;
9418;SDS011;4748;50.802;7.132;2023-06-22T06:46:09;3.88;;;3.58;;
9418;SDS011;4748;50.802;7.132;2023-06-22T06:48:35;4.60;;;3.58;;
9418;SDS011;4748;50.802;7.132;2023-06-22T06:51:00;3.92;;;3.63;;
9418;SDS011;4748;50.802;7.132;2023-06-22T06:53:26;5.97;;;3.13;;
9418;SDS011;4748;50.802;7.132;2023-06-22T06:55:51;4.57;;;4.05;;
9418;SDS011;4748;50.802;7.132;2023-06-22T06:58:17;4.43;;;3.80;;
9418;SDS011;4748;50.802;7.132;2023-06-22T07:00:42;4.30;;;3.90;;
9418;SDS011;4748;50.802;7.132;2023-06-22T07:03:08;6.10;;;4.05;;
9418;SDS011;4748;50.802;7.132;2023-06-22T07:05:34;4.13;;;3.83;;
9418;SDS011;4748;50.802;7.132;2023-06-22T07:08:00;3.90;;;3.60;;
9418;SDS011;4748;50.802;7.132;2023-06-22T07:10:25;3.83;;;3.53;;
9418;SDS011;4748;50.802;7.132;2023-06-22T07:12:51;3.92;;;3.72;;
9418;SDS011;4748;50.802;7.132;2023-06-22T07:15:16;4.03;;;3.72;;
9418;SDS011;4748;50.802;7.132;2023-06-22T07:17:42;4.78;;;3.33;;
9418;SDS011;4748;50.802;7.132;2023-06-22T07:20:07;4.13;;;3.83;;
9418;SDS011;4748;50.802;7.132;2023-06-22T07:22:37;5.03;;;4.60;;
9418;SDS011;4748;50.802;7.132;2023-06-22T07:25:03;3.97;;;3.58;;
9418;SDS011;4748;50.802;7.132;2023-06-22T07:27:34;5.43;;;4.57;;
9418;SDS011;4748;50.802;7.132;2023-06-22T07:30:10;5.10;;;3.95;;
9418;SDS011;4748;50.802;7.132;2023-06-22T07:32:36;3.83;;;3.53;;
9418;SDS011;4748;50.802;7.132;2023-06-22T07:35:01;4.00;;;3.65;;
9418;SDS011;4748;50.802;7.132;2023-06-22T07:37:27;4.55;;;3.85;;
9418;SDS011;4748;50.802;7.132;2023-06-22T07:39:54;4.10;;;3.75;;
9418;SDS011;4748;50.802;7.132;2023-06-22T07:42:23;4.30;;;3.90;;
9418;SDS011;4748;50.802;7.132;2023-06-22T07:44:53;5.13;;;4.00;;
9418;SDS011;4748;50.802;7.132;2023-06-22T07:47:19;4.00;;;3.65;;
9418;SDS011;4748;50.802;7.132;2023-06-22T07:49:45;6.65;;;3.70;;
9418;SDS011;4748;50.802;7.132;2023-06-22T07:52:13;4.00;;;3.80;;
9418;SDS011;4748;50.802;7.132;2023-06-22T07:54:38;5.28;;;3.85;;
9418;SDS011;4748;50.802;7.132;2023-06-22T07:57:04;4.45;;;3.92;;
9418;SDS011;4748;50.802;7.132;2023-06-22T07:59:29;3.78;;;3.58;;
9418;SDS011;4748;50.802;7.132;2023-06-22T08:01:55;4.63;;;4.22;;
9418;SDS011;4748;50.802;7.132;2023-06-22T08:04:20;3.97;;;3.67;;
9418;SDS011;4748;50.802;7.132;2023-06-22T08:06:46;4.88;;;3.78;;
9418;SDS011;4748;50.802;7.132;2023-06-22T08:09:11;6.00;;;3.95;;
9418;SDS011;4748;50.802;7.132;2023-06-22T08:11:37;4.53;;;4.22;;
9418;SDS011;4748;50.802;7.132;2023-06-22T08:14:02;4.22;;;3.88;;
9418;SDS011;4748;50.802;7.132;2023-06-22T08:16:28;5.18;;;4.78;;
9418;SDS011;4748;50.802;7.132;2023-06-22T08:18:53;4.38;;;4.00;;
9418;SDS011;4748;50.802;7.132;2023-06-22T08:21:19;5.18;;;4.65;;
9418;SDS011;4748;50.802;7.132;2023-06-22T08:23:45;6.05;;;4.50;;
9418;SDS011;4748;50.802;7.132;2023-06-22T08:26:10;4.55;;;4.25;;
9418;SDS011;4748;50.802;7.132;2023-06-22T08:28:35;4.47;;;4.18;;
9418;SDS011;4748;50.802;7.132;2023-06-22T08:31:01;4.45;;;4.15;;
9418;SDS011;4748;50.802;7.132;2023-06-22T08:33:27;4.32;;;3.97;;
9418;SDS011;4748;50.802;7.132;2023-06-22T08:35:55;5.95;;;3.80;;
9418;SDS011;4748;50.802;7.132;2023-06-22T08:38:21;4.72;;;4.43;;
9418;SDS011;4748;50.802;7.132;2023-06-22T08:40:46;4.10;;;3.80;;
9418;SDS011;4748;50.802;7.132;2023-06-22T08:43:12;4.28;;;3.92;;
9418;SDS011;4748;50.802;7.132;2023-06-22T08:45:37;4.90;;;4.20;;
9418;SDS011;4748;50.802;7.132;2023-06-22T08:48:02;4.65;;;4.25;;
9418;SDS011;4748;50.802;7.132;2023-06-22T08:50:28;5.95;;;4.50;;
9418;SDS011;4748;50.802;7.132;2023-06-22T08:52:53;4.88;;;4.40;;
9418;SDS011;4748;50.802;7.132;2023-06-22T08:55:19;8.65;;;4.80;;
9418;SDS011;4748;50.802;7.132;2023-06-22T08:57:44;4.70;;;4.32;;
9418;SDS011;4748;50.802;7.132;2023-06-22T09:00:10;5.93;;;4.38;;
9418;SDS011;4748;50.802;7.132;2023-06-22T09:02:42;5.68;;;4.43;;
9418;SDS011;4748;50.802;7.132;2023-06-22T09:05:08;4.07;;;3.78;;
9418;SDS011;4748;50.802;7.132;2023-06-22T09:07:34;3.95;;;3.65;;
9418;SDS011;4748;50.802;7.132;2023-06-22T09:09:59;4.72;;;3.88;;
9418;SDS011;4748;50.802;7.132;2023-06-22T09:12:25;4.70;;;4.30;;
9418;SDS011;4748;50.802;7.132;2023-06-22T09:14:52;4.43;;;4.03;;
9418;SDS011;4748;50.802;7.132;2023-06-22T09:17:18;3.83;;;3.53;;
9418;SDS011;4748;50.802;7.132;2023-06-22T09:19:44;4.35;;;3.88;;
9418;SDS011;4748;50.802;7.132;2023-06-22T09:22:09;4.45;;;4.15;;
9418;SDS011;4748;50.802;7.132;2023-06-22T09:24:34;4.43;;;4.03;;
9418;SDS011;4748;50.802;7.132;2023-06-22T09:27:00;3.92;;;3.67;;
9418;SDS011;4748;50.802;7.132;2023-06-22T09:29:25;4.15;;;3.85;;
9418;SDS011;4748;50.802;7.132;2023-06-22T09:31:51;5.72;;;4.05;;
9418;SDS011;4748;50.802;7.132;2023-06-22T09:34:18;3.78;;;3.17;;
9418;SDS011;4748;50.802;7.132;2023-06-22T09:36:45;4.07;;;3.78;;
9418;SDS011;4748;50.802;7.132;2023-06-22T09:39:13;3.65;;;3.42;;
9418;SDS011;4748;50.802;7.132;2023-06-22T09:41:39;3.97;;;3.25;;
9418;SDS011;4748;50.802;7.132;2023-06-22T09:44:04;3.70;;;3.40;;
9418;SDS011;4748;50.802;7.132;2023-06-22T09:46:29;6.05;;;3.92;;
9418;SDS011;4748;50.802;7.132;2023-06-22T09:48:55;3.75;;;3.40;;
9418;SDS011;4748;50.802;7.132;2023-06-22T09:51:20;4.10;;;3.80;;
9418;SDS011;4748;50.802;7.132;2023-06-22T09:53:46;5.30;;;3.92;;
9418;SDS011;4748;50.802;7.132;2023-06-22T09:56:12;4.22;;;3.92;;
9418;SDS011;4748;50.802;7.132;2023-06-22T09:58:40;4.22;;;3.63;;
9418;SDS011;4748;50.802;7.132;2023-06-22T10:01:06;6.60;;;4.65;;
9418;SDS011;4748;50.802;7.132;2023-06-22T10:03:32;4.05;;;3.72;;
9418;SDS011;4748;50.802;7.132;2023-06-22T10:05:57;3.63;;;3.42;;
9418;SDS011;4748;50.802;7.132;2023-06-22T10:08:23;4.50;;;3.90;;
9418;SDS011;4748;50.802;7.132;2023-06-22T10:10:48;10.32;;;4.45;;
9418;SDS011;4748;50.802;7.132;2023-06-22T10:13:13;4.18;;;3.80;;
9418;SDS011;4748;50.802;7.132;2023-06-22T10:15:39;5.03;;;4.63;;
9418;SDS011;4748;50.802;7.132;2023-06-22T10:18:05;3.83;;;3.53;;
9418;SDS011;4748;50.802;7.132;2023-06-22T10:20:31;5.38;;;3.95;;
9418;SDS011;4748;50.802;7.132;2023-06-22T10:22:56;4.53;;;4.13;;
9418;SDS011;4748;50.802;7.132;2023-06-22T10:25:22;5.60;;;5.13;;
9418;SDS011;4748;50.802;7.132;2023-06-22T10:27:47;6.63;;;4.22;;
9418;SDS011;4748;50.802;7.132;2023-06-22T10:30:13;5.43;;;4.45;;
9418;SDS011;4748;50.802;7.132;2023-06-22T10:32:39;4.78;;;4.47;;
9418;SDS011;4748;50.802;7.132;2023-06-22T10:35:05;5.13;;;4.55;;
9418;SDS011;4748;50.802;7.132;2023-06-22T10:37:31;7.13;;;4.57;;
9418;SDS011;4748;50.802;7.132;2023-06-22T10:39:57;4.15;;;3.88;;
9418;SDS011;4748;50.802;7.132;2023-06-22T10:42:23;5.70;;;5.13;;
9418;SDS011;4748;50.802;7.132;2023-06-22T10:44:48;4.57;;;4.28;;
9418;SDS011;4748;50.802;7.132;2023-06-22T10:47:13;9.65;;;5.80;;
9418;SDS011;4748;50.802;7.132;2023-06-22T10:49:39;10.30;;;5.88;;
9418;SDS011;4748;50.802;7.132;2023-06-22T10:52:06;8.13;;;6.05;;
9418;SDS011;4748;50.802;7.132;2023-06-22T10:54:32;7.22;;;5.63;;
9418;SDS011;4748;50.802;7.132;2023-06-22T10:56:58;7.32;;;5.35;;
9418;SDS011;4748;50.802;7.132;2023-06-22T10:59:24;5.95;;;5.45;;
9418;SDS011;4748;50.802;7.132;2023-06-22T11:01:50;10.10;;;6.68;;
9418;SDS011;4748;50.802;7.132;2023-06-22T11:04:16;9.63;;;6.50;;
9418;SDS011;4748;50.802;7.132;2023-06-22T11:06:42;11.55;;;6.63;;
9418;SDS011;4748;50.802;7.132;2023-06-22T11:09:08;9.55;;;7.75;;
9418;SDS011;4748;50.802;7.132;2023-06-22T11:11:33;16.75;;;7.80;;
9418;SDS011;4748;50.802;7.132;2023-06-22T11:13:58;10.23;;;7.07;;
9418;SDS011;4748;50.802;7.132;2023-06-22T11:16:24;13.35;;;6.75;;
9418;SDS011;4748;50.802;7.132;2023-06-22T11:18:49;9.07;;;6.82;;
9418;SDS011;4748;50.802;7.132;2023-06-22T11:21:15;10.73;;;6.53;;
9418;SDS011;4748;50.802;7.132;2023-06-22T11:23:41;7.95;;;6.30;;
9418;SDS011;4748;50.802;7.132;2023-06-22T11:26:07;6.72;;;5.63;;
9418;SDS011;4748;50.802;7.132;2023-06-22T11:28:32;8.15;;;6.70;;
9418;SDS011;4748;50.802;7.132;2023-06-22T11:30:58;11.13;;;6.93;;
9418;SDS011;4748;50.802;7.132;2023-06-22T11:33:23;8.45;;;6.60;;
9418;SDS011;4748;50.802;7.132;2023-06-22T11:35:49;9.68;;;6.38;;
9418;SDS011;4748;50.802;7.132;2023-06-22T11:38:14;8.55;;;6.32;;
9418;SDS011;4748;50.802;7.132;2023-06-22T11:40:40;11.25;;;7.10;;
9418;SDS011;4748;50.802;7.132;2023-06-22T11:43:05;8.55;;;6.82;;
9418;SDS011;4748;50.802;7.132;2023-06-22T11:45:31;6.43;;;5.75;;
9418;SDS011;4748;50.802;7.132;2023-06-22T11:47:56;9.13;;;7.00;;
9418;SDS011;4748;50.802;7.132;2023-06-22T11:50:21;7.47;;;6.07;;
9418;SDS011;4748;50.802;7.132;2023-06-22T11:52:47;7.18;;;6.13;;
9418;SDS011;4748;50.802;7.132;2023-06-22T11:55:12;7.13;;;5.82;;
9418;SDS011;4748;50.802;7.132;2023-06-22T11:57:38;7.72;;;5.75;;
9418;SDS011;4748;50.802;7.132;2023-06-22T12:00:18;9.70;;;5.88;;
9418;SDS011;4748;50.802;7.132;2023-06-22T12:02:45;9.15;;;6.68;;
9418;SDS011;4748;50.802;7.132;2023-06-22T12:05:10;8.10;;;5.97;;
9418;SDS011;4748;50.802;7.132;2023-06-22T12:07:37;6.93;;;5.10;;
9418;SDS011;4748;50.802;7.132;2023-06-22T12:10:03;5.95;;;5.40;;
9418;SDS011;4748;50.802;7.132;2023-06-22T12:12:28;8.32;;;5.82;;
9418;SDS011;4748;50.802;7.132;2023-06-22T12:14:54;6.05;;;5.55;;
9418;SDS011;4748;50.802;7.132;2023-06-22T12:17:20;5.65;;;5.03;;
9418;SDS011;4748;50.802;7.132;2023-06-22T12:19:45;7.07;;;5.82;;
9418;SDS011;4748;50.802;7.132;2023-06-22T12:22:10;5.05;;;4.63;;
9418;SDS011;4748;50.802;7.132;2023-06-22T12:24:37;5.47;;;4.80;;
9418;SDS011;4748;50.802;7.132;2023-06-22T12:27:02;5.75;;;4.38;;
9418;SDS011;4748;50.802;7.132;2023-06-22T12:29:28;5.13;;;4.43;;
9418;SDS011;4748;50.802;7.132;2023-06-22T12:31:54;4.72;;;4.10;;
9418;SDS011;4748;50.802;7.132;2023-06-22T12:34:19;5.70;;;4.55;;
9418;SDS011;4748;50.802;7.132;2023-06-22T12:36:45;4.03;;;3.67;;
9418;SDS011;4748;50.802;7.132;2023-06-22T12:39:13;6.32;;;3.83;;
9418;SDS011;4748;50.802;7.132;2023-06-22T12:41:38;3.15;;;2.95;;
9418;SDS011;4748;50.802;7.132;2023-06-22T12:44:03;3.92;;;3.55;;
9418;SDS011;4748;50.802;7.132;2023-06-22T12:46:29;2.78;;;2.60;;
9418;SDS011;4748;50.802;7.132;2023-06-22T12:49:00;2.10;;;2.00;;
9418;SDS011;4748;50.802;7.132;2023-06-22T12:51:26;1.63;;;1.10;;
9418;SDS011;4748;50.802;7.132;2023-06-22T12:53:51;1.92;;;1.67;;
9418;SDS011;4748;50.802;7.132;2023-06-22T12:56:16;2.38;;;2.17;;
9418;SDS011;4748;50.802;7.132;2023-06-22T12:58:42;2.75;;;1.30;;
9418;SDS011;4748;50.802;7.132;2023-06-22T13:01:07;1.08;;;1.08;;
9418;SDS011;4748;50.802;7.132;2023-06-22T13:03:33;2.03;;;0.85;;
9418;SDS011;4748;50.802;7.132;2023-06-22T13:05:58;6.35;;;1.95;;
9418;SDS011;4748;50.802;7.132;2023-06-22T13:08:23;2.20;;;1.17;;
9418;SDS011;4748;50.802;7.132;2023-06-22T13:10:49;1.27;;;1.23;;
9418;SDS011;4748;50.802;7.132;2023-06-22T13:13:14;2.22;;;1.20;;
9418;SDS011;4748;50.802;7.132;2023-06-22T13:15:39;1.75;;;1.75;;
9418;SDS011;4748;50.802;7.132;2023-06-22T13:18:05;1.63;;;1.55;;
9418;SDS011;4748;50.802;7.132;2023-06-22T13:20:30;2.10;;;2.00;;
9418;SDS011;4748;50.802;7.132;2023-06-22T13:22:56;1.70;;;1.60;;
9418;SDS011;4748;50.802;7.132;2023-06-22T13:25:21;2.03;;;1.83;;
9418;SDS011;4748;50.802;7.132;2023-06-22T13:27:51;4.72;;;2.78;;
9418;SDS011;4748;50.802;7.132;2023-06-22T13:30:16;2.10;;;2.00;;
9418;SDS011;4748;50.802;7.132;2023-06-22T13:32:42;2.95;;;2.75;;
9418;SDS011;4748;50.802;7.132;2023-06-22T13:35:08;3.20;;;2.92;;
9418;SDS011;4748;50.802;7.132;2023-06-22T13:37:37;3.38;;;2.47;;
9418;SDS011;4748;50.802;7.132;2023-06-22T13:40:02;2.42;;;2.28;;
9418;SDS011;4748;50.802;7.132;2023-06-22T13:42:31;2.47;;;2.38;;
9418;SDS011;4748;50.802;7.132;2023-06-22T13:44:56;2.00;;;1.90;;
9418;SDS011;4748;50.802;7.132;2023-06-22T13:47:22;2.28;;;2.17;;
9418;SDS011;4748;50.802;7.132;2023-06-22T13:49:47;11.18;;;2.50;;
9418;SDS011;4748;50.802;7.132;2023-06-22T13:52:13;2.35;;;2.25;;
9418;SDS011;4748;50.802;7.132;2023-06-22T13:54:38;2.30;;;2.20;;
9418;SDS011;4748;50.802;7.132;2023-06-22T13:57:03;7.57;;;2.17;;
9418;SDS011;4748;50.802;7.132;2023-06-22T13:59:29;3.67;;;2.30;;
9418;SDS011;4748;50.802;7.132;2023-06-22T14:01:55;2.55;;;2.45;;
9418;SDS011;4748;50.802;7.132;2023-06-22T14:04:21;2.60;;;2.40;;
9418;SDS011;4748;50.802;7.132;2023-06-22T14:06:48;4.03;;;3.20;;
9418;SDS011;4748;50.802;7.132;2023-06-22T14:09:13;3.70;;;3.40;;
9418;SDS011;4748;50.802;7.132;2023-06-22T14:11:39;4.60;;;3.17;;
9418;SDS011;4748;50.802;7.132;2023-06-22T14:14:04;5.85;;;3.40;;
9418;SDS011;4748;50.802;7.132;2023-06-22T14:16:30;3.80;;;3.50;;
9418;SDS011;4748;50.802;7.132;2023-06-22T14:18:55;4.18;;;3.72;;
9418;SDS011;4748;50.802;7.132;2023-06-22T14:21:20;4.85;;;3.63;;
9418;SDS011;4748;50.802;7.132;2023-06-22T14:23:46;7.18;;;4.35;;
9418;SDS011;4748;50.802;7.132;2023-06-22T14:26:14;4.45;;;4.05;;
9418;SDS011;4748;50.802;7.132;2023-06-22T14:28:43;4.15;;;3.85;;
9418;SDS011;4748;50.802;7.132;2023-06-22T14:31:12;9.18;;;4.05;;
9418;SDS011;4748;50.802;7.132;2023-06-22T14:33:39;4.00;;;3.75;;
9418;SDS011;4748;50.802;7.132;2023-06-22T14:36:04;4.60;;;4.15;;
9418;SDS011;4748;50.802;7.132;2023-06-22T14:38:30;5.45;;;4.53;;
9418;SDS011;4748;50.802;7.132;2023-06-22T14:40:55;11.05;;;5.20;;
9418;SDS011;4748;50.802;7.132;2023-06-22T14:43:20;14.23;;;6.10;;
9418;SDS011;4748;50.802;7.132;2023-06-22T14:45:46;9.55;;;5.22;;
9418;SDS011;4748;50.802;7.132;2023-06-22T14:48:11;33.05;;;6.57;;
9418;SDS011;4748;50.802;7.132;2023-06-22T14:50:36;12.18;;;7.05;;
9418;SDS011;4748;50.802;7.132;2023-06-22T14:53:02;8.98;;;5.90;;
9418;SDS011;4748;50.802;7.132;2023-06-22T14:55:27;8.80;;;5.95;;
9418;SDS011;4748;50.802;7.132;2023-06-22T14:57:52;9.30;;;6.93;;
9418;SDS011;4748;50.802;7.132;2023-06-22T15:00:18;9.70;;;3.70;;
9418;SDS011;4748;50.802;7.132;2023-06-22T15:02:44;5.40;;;3.00;;
9418;SDS011;4748;50.802;7.132;2023-06-22T15:05:09;5.03;;;3.72;;
9418;SDS011;4748;50.802;7.132;2023-06-22T15:07:34;3.42;;;3.20;;
9418;SDS011;4748;50.802;7.132;2023-06-22T15:10:00;10.68;;;4.32;;
9418;SDS011;4748;50.802;7.132;2023-06-22T15:12:25;5.82;;;5.00;;
9418;SDS011;4748;50.802;7.132;2023-06-22T15:14:51;4.18;;;3.88;;
9418;SDS011;4748;50.802;7.132;2023-06-22T15:17:16;9.23;;;5.20;;
9418;SDS011;4748;50.802;7.132;2023-06-22T15:19:45;19.33;;;4.80;;
9418;SDS011;4748;50.802;7.132;2023-06-22T15:22:10;4.60;;;4.20;;
9418;SDS011;4748;50.802;7.132;2023-06-22T15:24:35;6.60;;;3.95;;
9418;SDS011;4748;50.802;7.132;2023-06-22T15:27:01;5.78;;;4.70;;
9418;SDS011;4748;50.802;7.132;2023-06-22T15:29:27;5.95;;;4.38;;
9418;SDS011;4748;50.802;7.132;2023-06-22T15:31:52;9.57;;;4.05;;
9418;SDS011;4748;50.802;7.132;2023-06-22T15:34:18;5.20;;;4.00;;
9418;SDS011;4748;50.802;7.132;2023-06-22T15:36:44;6.85;;;4.82;;
9418;SDS011;4748;50.802;7.132;2023-06-22T15:39:09;5.60;;;5.10;;
9418;SDS011;4748;50.802;7.132;2023-06-22T15:41:35;4.90;;;4.47;;
9418;SDS011;4748;50.802;7.132;2023-06-22T15:44:00;5.25;;;4.22;;
9418;SDS011;4748;50.802;7.132;2023-06-22T15:46:26;7.22;;;4.93;;
9418;SDS011;4748;50.802;7.132;2023-06-22T15:48:51;4.90;;;4.43;;
9418;SDS011;4748;50.802;7.132;2023-06-22T15:51:16;8.20;;;5.30;;
9418;SDS011;4748;50.802;7.132;2023-06-22T15:53:42;6.93;;;4.75;;
9418;SDS011;4748;50.802;7.132;2023-06-22T15:56:07;6.30;;;5.60;;
9418;SDS011;4748;50.802;7.132;2023-06-22T15:58:36;8.10;;;5.95;;
9418;SDS011;4748;50.802;7.132;2023-06-22T16:01:02;6.55;;;5.50;;
9418;SDS011;4748;50.802;7.132;2023-06-22T16:03:28;5.65;;;4.43;;
9418;SDS011;4748;50.802;7.132;2023-06-22T16:05:54;6.10;;;4.68;;
9418;SDS011;4748;50.802;7.132;2023-06-22T16:08:19;7.43;;;5.20;;
9418;SDS011;4748;50.802;7.132;2023-06-22T16:10:44;6.13;;;5.07;;
9418;SDS011;4748;50.802;7.132;2023-06-22T16:13:10;6.00;;;5.40;;
9418;SDS011;4748;50.802;7.132;2023-06-22T16:15:35;6.70;;;5.55;;
9418;SDS011;4748;50.802;7.132;2023-06-22T16:18:00;9.15;;;6.03;;
9418;SDS011;4748;50.802;7.132;2023-06-22T16:20:26;7.50;;;5.18;;
9418;SDS011;4748;50.802;7.132;2023-06-22T16:22:51;6.95;;;5.65;;
9418;SDS011;4748;50.802;7.132;2023-06-22T16:25:16;9.00;;;6.30;;
9418;SDS011;4748;50.802;7.132;2023-06-22T16:27:43;18.35;;;6.43;;
9418;SDS011;4748;50.802;7.132;2023-06-22T16:30:09;10.25;;;5.95;;
9418;SDS011;4748;50.802;7.132;2023-06-22T16:32:35;7.40;;;5.43;;
9418;SDS011;4748;50.802;7.132;2023-06-22T16:35:00;5.32;;;4.82;;
9418;SDS011;4748;50.802;7.132;2023-06-22T16:37:26;6.13;;;4.78;;
9418;SDS011;4748;50.802;7.132;2023-06-22T16:39:51;7.43;;;4.53;;
9418;SDS011;4748;50.802;7.132;2023-06-22T16:42:17;3.05;;;2.85;;
9418;SDS011;4748;50.802;7.132;2023-06-22T16:44:42;3.35;;;3.10;;
9418;SDS011;4748;50.802;7.132;2023-06-22T16:47:08;2.58;;;2.22;;
9418;SDS011;4748;50.802;7.132;2023-06-22T16:49:33;4.43;;;1.88;;
9418;SDS011;4748;50.802;7.132;2023-06-22T16:52:01;2.30;;;2.10;;
9418;SDS011;4748;50.802;7.132;2023-06-22T16:54:28;6.93;;;4.03;;
9418;SDS011;4748;50.802;7.132;2023-06-22T16:56:54;1.92;;;1.75;;
9418;SDS011;4748;50.802;7.132;2023-06-22T16:59:20;3.45;;;2.00;;
9418;SDS011;4748;50.802;7.132;2023-06-22T17:01:52;4.30;;;2.38;;
9418;SDS011;4748;50.802;7.132;2023-06-22T17:04:21;2.70;;;2.50;;
9418;SDS011;4748;50.802;7.132;2023-06-22T17:06:51;6.68;;;2.03;;
9418;SDS011;4748;50.802;7.132;2023-06-22T17:09:23;2.35;;;2.17;;
9418;SDS011;4748;50.802;7.132;2023-06-22T17:11:52;5.68;;;2.40;;
9418;SDS011;4748;50.802;7.132;2023-06-22T17:14:19;2.30;;;2.20;;
9418;SDS011;4748;50.802;7.132;2023-06-22T17:16:44;4.22;;;3.15;;
9418;SDS011;4748;50.802;7.132;2023-06-22T17:19:13;2.65;;;2.45;;
9418;SDS011;4748;50.802;7.132;2023-06-22T17:21:40;9.70;;;3.28;;
9418;SDS011;4748;50.802;7.132;2023-06-22T17:24:07;3.85;;;3.15;;
9418;SDS011;4748;50.802;7.132;2023-06-22T17:26:32;6.90;;;3.15;;
9418;SDS011;4748;50.802;7.132;2023-06-22T17:28:57;3.25;;;2.92;;
9418;SDS011;4748;50.802;7.132;2023-06-22T17:31:41;3.53;;;3.28;;
9418;SDS011;4748;50.802;7.132;2023-06-22T17:34:15;6.57;;;2.90;;
9418;SDS011;4748;50.802;7.132;2023-06-22T17:36:46;8.10;;;2.92;;
9418;SDS011;4748;50.802;7.132;2023-06-22T17:39:16;3.35;;;2.83;;
9418;SDS011;4748;50.802;7.132;2023-06-22T17:41:44;11.93;;;3.10;;
9418;SDS011;4748;50.802;7.132;2023-06-22T17:44:13;3.15;;;2.35;;
9418;SDS011;4748;50.802;7.132;2023-06-22T17:46:43;3.47;;;3.17;;
9418;SDS011;4748;50.802;7.132;2023-06-22T17:49:09;10.27;;;3.53;;
9418;SDS011;4748;50.802;7.132;2023-06-22T17:51:35;2.45;;;2.28;;
9418;SDS011;4748;50.802;7.132;2023-06-22T17:54:04;4.13;;;2.63;;
9418;SDS011;4748;50.802;7.132;2023-06-22T17:56:31;3.75;;;3.33;;
9418;SDS011;4748;50.802;7.132;2023-06-22T17:58:57;5.65;;;3.05;;
9418;SDS011;4748;50.802;7.132;2023-06-22T18:01:30;5.05;;;3.53;;
9418;SDS011;4748;50.802;7.132;2023-06-22T18:04:21;4.00;;;3.60;;
9418;SDS011;4748;50.802;7.132;2023-06-22T18:06:46;10.40;;;3.85;;
9418;SDS011;4748;50.802;7.132;2023-06-22T18:09:13;9.82;;;3.67;;
9418;SDS011;4748;50.802;7.132;2023-06-22T18:11:42;6.25;;;3.33;;
9418;SDS011;4748;50.802;7.132;2023-06-22T18:14:19;5.45;;;3.55;;
9418;SDS011;4748;50.802;7.132;2023-06-22T18:16:48;4.03;;;3.70;;
9418;SDS011;4748;50.802;7.132;2023-06-22T18:19:15;4.10;;;3.70;;
9418;SDS011;4748;50.802;7.132;2023-06-22T18:21:45;8.65;;;3.20;;
9418;SDS011;4748;50.802;7.132;2023-06-22T18:24:14;5.07;;;3.33;;
9418;SDS011;4748;50.802;7.132;2023-06-22T18:26:41;4.88;;;3.13;;
9418;SDS011;4748;50.802;7.132;2023-06-22T18:29:08;8.90;;;3.38;;
9418;SDS011;4748;50.802;7.132;2023-06-22T18:31:34;12.13;;;3.75;;
9418;SDS011;4748;50.802;7.132;2023-06-22T18:34:00;6.28;;;3.33;;
9418;SDS011;4748;50.802;7.132;2023-06-22T18:36:48;4.20;;;3.35;;
9418;SDS011;4748;50.802;7.132;2023-06-22T18:39:16;3.80;;;3.50;;